sensor_id;sensor_type;location;lat;lon;timestamp;temperature;humidity
13682;DHT22;6913;49.892;7.936;2023-04-24T00:01:05;11.10;99.90
13682;DHT22;6913;49.892;7.936;2023-04-24T00:03:32;11.10;99.90
13682;DHT22;6913;49.892;7.936;2023-04-24T00:06:00;11.10;99.90
13682;DHT22;6913;49.892;7.936;2023-04-24T00:08:29;11.10;99.90
13682;DHT22;6913;49.892;7.936;2023-04-24T00:10:56;11.20;99.90
13682;DHT22;6913;49.892;7.936;2023-04-24T00:13:23;11.20;99.90
13682;DHT22;6913;49.892;7.936;2023-04-24T00:15:49;11.20;99.90
13682;DHT22;6913;49.892;7.936;2023-04-24T00:18:16;11.20;99.90
13682;DHT22;6913;49.892;7.936;2023-04-24T00:20:43;11.20;99.90
13682;DHT22;6913;49.892;7.936;2023-04-24T00:23:10;11.10;99.90
13682;DHT22;6913;49.892;7.936;2023-04-24T00:25:38;11.10;99.90
13682;DHT22;6913;49.892;7.936;2023-04-24T00:28:05;11.10;99.90
13682;DHT22;6913;49.892;7.936;2023-04-24T00:30:32;11.10;99.90
13682;DHT22;6913;49.892;7.936;2023-04-24T00:32:59;11.00;99.90
13682;DHT22;6913;49.892;7.936;2023-04-24T00:35:26;11.00;99.90
13682;DHT22;6913;49.892;7.936;2023-04-24T00:37:52;11.00;99.90
13682;DHT22;6913;49.892;7.936;2023-04-24T00:40:20;11.10;99.90
13682;DHT22;6913;49.892;7.936;2023-04-24T00:42:48;11.10;99.90
13682;DHT22;6913;49.892;7.936;2023-04-24T00:45:15;11.10;99.90
13682;DHT22;6913;49.892;7.936;2023-04-24T00:47:42;11.10;99.90
13682;DHT22;6913;49.892;7.936;2023-04-24T00:50:09;11.10;99.90
13682;DHT22;6913;49.892;7.936;2023-04-24T00:52:36;11.10;99.90
13682;DHT22;6913;49.892;7.936;2023-04-24T00:55:06;11.20;99.90
13682;DHT22;6913;49.892;7.936;2023-04-24T00:57:33;11.20;99.90
13682;DHT22;6913;49.892;7.936;2023-04-24T01:00:03;11.40;99.90
13682;DHT22;6913;49.892;7.936;2023-04-24T01:02:38;11.30;99.90
13682;DHT22;6913;49.892;7.936;2023-04-24T01:05:09;11.30;99.90
13682;DHT22;6913;49.892;7.936;2023-04-24T01:07:37;11.40;99.90
13682;DHT22;6913;49.892;7.936;2023-04-24T01:10:05;11.40;99.90
13682;DHT22;6913;49.892;7.936;2023-04-24T01:12:33;11.40;99.90
13682;DHT22;6913;49.892;7.936;2023-04-24T01:15:01;11.40;99.90
13682;DHT22;6913;49.892;7.936;2023-04-24T01:17:29;11.50;99.90
13682;DHT22;6913;49.892;7.936;2023-04-24T01:19:56;11.60;99.90
13682;DHT22;6913;49.892;7.936;2023-04-24T01:22:24;11.60;99.90
13682;DHT22;6913;49.892;7.936;2023-04-24T01:24:52;11.70;99.90
13682;DHT22;6913;49.892;7.936;2023-04-24T01:27:19;11.70;99.90
13682;DHT22;6913;49.892;7.936;2023-04-24T01:29:46;11.80;99.90
13682;DHT22;6913;49.892;7.936;2023-04-24T01:32:15;11.70;99.90
13682;DHT22;6913;49.892;7.936;2023-04-24T01:34:42;11.70;99.90
13682;DHT22;6913;49.892;7.936;2023-04-24T01:37:09;11.80;99.90
13682;DHT22;6913;49.892;7.936;2023-04-24T01:39:37;11.80;99.90
13682;DHT22;6913;49.892;7.936;2023-04-24T01:42:05;11.70;99.90
13682;DHT22;6913;49.892;7.936;2023-04-24T01:44:33;11.70;99.90
13682;DHT22;6913;49.892;7.936;2023-04-24T01:47:01;11.80;99.90
13682;DHT22;6913;49.892;7.936;2023-04-24T01:49:28;11.80;99.90
13682;DHT22;6913;49.892;7.936;2023-04-24T01:51:54;11.70;99.90
13682;DHT22;6913;49.892;7.936;2023-04-24T01:54:21;11.70;99.90
13682;DHT22;6913;49.892;7.936;2023-04-24T01:56:49;11.60;99.90
13682;DHT22;6913;49.892;7.936;2023-04-24T01:59:17;11.60;99.90
13682;DHT22;6913;49.892;7.936;2023-04-24T02:01:44;11.60;99.90
13682;DHT22;6913;49.892;7.936;2023-04-24T02:04:10;11.60;99.90
13682;DHT22;6913;49.892;7.936;2023-04-24T02:06:37;11.50;99.90
13682;DHT22;6913;49.892;7.936;2023-04-24T02:09:04;11.50;99.90
13682;DHT22;6913;49.892;7.936;2023-04-24T02:11:31;11.50;99.90
13682;DHT22;6913;49.892;7.936;2023-04-24T02:13:59;11.50;99.90
13682;DHT22;6913;49.892;7.936;2023-04-24T02:16:27;11.50;99.90
13682;DHT22;6913;49.892;7.936;2023-04-24T02:18:55;11.70;99.90
13682;DHT22;6913;49.892;7.936;2023-04-24T02:21:22;11.50;99.90
13682;DHT22;6913;49.892;7.936;2023-04-24T02:23:49;11.50;99.90
13682;DHT22;6913;49.892;7.936;2023-04-24T02:26:16;11.50;99.90
13682;DHT22;6913;49.892;7.936;2023-04-24T02:28:43;11.50;99.90
13682;DHT22;6913;49.892;7.936;2023-04-24T02:31:11;11.50;99.90
13682;DHT22;6913;49.892;7.936;2023-04-24T02:33:38;11.40;99.90
13682;DHT22;6913;49.892;7.936;2023-04-24T02:36:05;11.50;99.90
13682;DHT22;6913;49.892;7.936;2023-04-24T02:38:32;11.50;99.90
13682;DHT22;6913;49.892;7.936;2023-04-24T02:40:59;11.60;99.90
13682;DHT22;6913;49.892;7.936;2023-04-24T02:43:26;11.60;99.90
13682;DHT22;6913;49.892;7.936;2023-04-24T02:45:53;11.60;99.90
13682;DHT22;6913;49.892;7.936;2023-04-24T02:48:21;11.50;99.90
13682;DHT22;6913;49.892;7.936;2023-04-24T02:50:47;11.50;99.90
13682;DHT22;6913;49.892;7.936;2023-04-24T02:53:14;11.50;99.90
13682;DHT22;6913;49.892;7.936;2023-04-24T02:55:41;11.40;99.90
13682;DHT22;6913;49.892;7.936;2023-04-24T02:58:08;11.30;99.90
13682;DHT22;6913;49.892;7.936;2023-04-24T03:00:36;11.30;99.90
13682;DHT22;6913;49.892;7.936;2023-04-24T03:03:02;11.30;99.90
13682;DHT22;6913;49.892;7.936;2023-04-24T03:05:31;11.30;99.90
13682;DHT22;6913;49.892;7.936;2023-04-24T03:07:57;11.30;99.90
13682;DHT22;6913;49.892;7.936;2023-04-24T03:10:24;11.60;99.90
13682;DHT22;6913;49.892;7.936;2023-04-24T03:12:51;11.20;99.90
13682;DHT22;6913;49.892;7.936;2023-04-24T03:15:18;11.20;99.90
13682;DHT22;6913;49.892;7.936;2023-04-24T03:17:45;11.10;99.90
13682;DHT22;6913;49.892;7.936;2023-04-24T03:20:11;11.10;99.90
13682;DHT22;6913;49.892;7.936;2023-04-24T03:22:40;11.00;99.90
13682;DHT22;6913;49.892;7.936;2023-04-24T03:25:07;11.00;99.90
13682;DHT22;6913;49.892;7.936;2023-04-24T03:27:34;10.90;99.90
13682;DHT22;6913;49.892;7.936;2023-04-24T03:30:01;11.10;99.90
13682;DHT22;6913;49.892;7.936;2023-04-24T03:32:28;10.70;99.90
13682;DHT22;6913;49.892;7.936;2023-04-24T03:34:55;10.60;99.90
13682;DHT22;6913;49.892;7.936;2023-04-24T03:37:22;10.80;99.90
13682;DHT22;6913;49.892;7.936;2023-04-24T03:39:50;10.50;99.90
13682;DHT22;6913;49.892;7.936;2023-04-24T03:42:17;10.40;99.90
13682;DHT22;6913;49.892;7.936;2023-04-24T03:44:44;10.30;99.90
13682;DHT22;6913;49.892;7.936;2023-04-24T03:47:11;10.30;99.90
13682;DHT22;6913;49.892;7.936;2023-04-24T03:49:37;10.10;81.50
13682;DHT22;6913;49.892;7.936;2023-04-24T03:52:04;10.00;42.10
13682;DHT22;6913;49.892;7.936;2023-04-24T03:54:31;9.90;20.00
13682;DHT22;6913;49.892;7.936;2023-04-24T03:56:59;9.80;31.40
13682;DHT22;6913;49.892;7.936;2023-04-24T03:59:27;9.70;22.70
13682;DHT22;6913;49.892;7.936;2023-04-24T04:01:53;9.60;49.90
13682;DHT22;6913;49.892;7.936;2023-04-24T04:04:20;9.50;20.50
13682;DHT22;6913;49.892;7.936;2023-04-24T04:06:47;9.50;8.00
13682;DHT22;6913;49.892;7.936;2023-04-24T04:09:14;9.70;1.00
13682;DHT22;6913;49.892;7.936;2023-04-24T04:11:41;9.40;3.80
13682;DHT22;6913;49.892;7.936;2023-04-24T04:14:09;9.40;2.50
13682;DHT22;6913;49.892;7.936;2023-04-24T04:16:36;9.70;6.50
13682;DHT22;6913;49.892;7.936;2023-04-24T04:19:03;9.80;8.40
13682;DHT22;6913;49.892;7.936;2023-04-24T04:21:30;9.40;18.30
13682;DHT22;6913;49.892;7.936;2023-04-24T04:23:57;9.40;28.20
13682;DHT22;6913;49.892;7.936;2023-04-24T04:26:24;9.20;2.70
13682;DHT22;6913;49.892;7.936;2023-04-24T04:28:51;9.00;23.50
13682;DHT22;6913;49.892;7.936;2023-04-24T04:31:20;9.00;1.00
13682;DHT22;6913;49.892;7.936;2023-04-24T04:33:47;9.00;1.00
13682;DHT22;6913;49.892;7.936;2023-04-24T04:36:14;9.00;1.00
13682;DHT22;6913;49.892;7.936;2023-04-24T04:38:42;8.80;1.00
13682;DHT22;6913;49.892;7.936;2023-04-24T04:41:10;8.90;1.00
13682;DHT22;6913;49.892;7.936;2023-04-24T04:43:37;8.90;1.00
13682;DHT22;6913;49.892;7.936;2023-04-24T04:46:06;8.90;1.00
13682;DHT22;6913;49.892;7.936;2023-04-24T04:48:35;9.00;1.00
13682;DHT22;6913;49.892;7.936;2023-04-24T04:51:02;8.90;9.50
13682;DHT22;6913;49.892;7.936;2023-04-24T04:53:28;8.90;6.70
13682;DHT22;6913;49.892;7.936;2023-04-24T04:55:55;8.90;16.80
13682;DHT22;6913;49.892;7.936;2023-04-24T04:58:22;9.20;31.70
13682;DHT22;6913;49.892;7.936;2023-04-24T05:00:49;8.90;34.80
13682;DHT22;6913;49.892;7.936;2023-04-24T05:03:16;9.00;40.80
13682;DHT22;6913;49.892;7.936;2023-04-24T05:05:44;9.20;24.50
13682;DHT22;6913;49.892;7.936;2023-04-24T05:08:11;9.40;42.10
13682;DHT22;6913;49.892;7.936;2023-04-24T05:10:38;9.70;16.10
13682;DHT22;6913;49.892;7.936;2023-04-24T05:13:04;9.70;13.70
13682;DHT22;6913;49.892;7.936;2023-04-24T05:15:31;9.70;21.70
13682;DHT22;6913;49.892;7.936;2023-04-24T05:17:58;9.70;48.20
13682;DHT22;6913;49.892;7.936;2023-04-24T05:20:25;10.30;24.50
13682;DHT22;6913;49.892;7.936;2023-04-24T05:22:53;10.10;22.00
13682;DHT22;6913;49.892;7.936;2023-04-24T05:25:19;10.30;1.00
13682;DHT22;6913;49.892;7.936;2023-04-24T05:27:46;10.40;1.00
13682;DHT22;6913;49.892;7.936;2023-04-24T05:30:13;10.70;1.00
13682;DHT22;6913;49.892;7.936;2023-04-24T05:32:40;10.80;1.00
13682;DHT22;6913;49.892;7.936;2023-04-24T05:35:08;11.10;1.00
13682;DHT22;6913;49.892;7.936;2023-04-24T05:37:34;11.20;1.00
13682;DHT22;6913;49.892;7.936;2023-04-24T05:40:03;10.90;1.00
13682;DHT22;6913;49.892;7.936;2023-04-24T05:42:31;10.80;1.00
13682;DHT22;6913;49.892;7.936;2023-04-24T05:44:57;10.80;1.00
13682;DHT22;6913;49.892;7.936;2023-04-24T05:47:24;10.80;1.80
13682;DHT22;6913;49.892;7.936;2023-04-24T05:49:51;10.70;1.00
13682;DHT22;6913;49.892;7.936;2023-04-24T05:52:18;10.70;50.00
13682;DHT22;6913;49.892;7.936;2023-04-24T05:54:45;10.60;50.10
13682;DHT22;6913;49.892;7.936;2023-04-24T05:57:13;10.80;71.60
13682;DHT22;6913;49.892;7.936;2023-04-24T05:59:40;11.00;14.60
13682;DHT22;6913;49.892;7.936;2023-04-24T06:02:07;11.20;1.00
13682;DHT22;6913;49.892;7.936;2023-04-24T06:04:34;11.40;26.30
13682;DHT22;6913;49.892;7.936;2023-04-24T06:07:01;11.30;1.00
13682;DHT22;6913;49.892;7.936;2023-04-24T06:09:28;11.60;1.00
13682;DHT22;6913;49.892;7.936;2023-04-24T06:11:55;11.60;1.00
13682;DHT22;6913;49.892;7.936;2023-04-24T06:14:23;11.70;1.00
13682;DHT22;6913;49.892;7.936;2023-04-24T06:16:50;12.10;1.00
13682;DHT22;6913;49.892;7.936;2023-04-24T06:19:16;12.00;1.00
13682;DHT22;6913;49.892;7.936;2023-04-24T06:21:43;11.70;1.00
13682;DHT22;6913;49.892;7.936;2023-04-24T06:24:10;11.60;1.00
13682;DHT22;6913;49.892;7.936;2023-04-24T06:26:37;11.70;1.00
13682;DHT22;6913;49.892;7.936;2023-04-24T06:29:04;11.80;1.00
13682;DHT22;6913;49.892;7.936;2023-04-24T06:31:32;12.10;1.00
13682;DHT22;6913;49.892;7.936;2023-04-24T06:34:02;12.30;1.00
13682;DHT22;6913;49.892;7.936;2023-04-24T06:36:29;12.90;1.00
13682;DHT22;6913;49.892;7.936;2023-04-24T06:38:56;13.50;1.00
13682;DHT22;6913;49.892;7.936;2023-04-24T06:41:23;13.80;1.00
13682;DHT22;6913;49.892;7.936;2023-04-24T06:43:50;14.00;99.90
13682;DHT22;6913;49.892;7.936;2023-04-24T06:46:17;13.10;1.00
13682;DHT22;6913;49.892;7.936;2023-04-24T06:48:45;12.70;1.00
13682;DHT22;6913;49.892;7.936;2023-04-24T06:51:12;12.50;1.00
13682;DHT22;6913;49.892;7.936;2023-04-24T06:53:38;12.60;1.00
13682;DHT22;6913;49.892;7.936;2023-04-24T06:56:05;12.70;1.00
13682;DHT22;6913;49.892;7.936;2023-04-24T06:58:32;12.70;1.00
13682;DHT22;6913;49.892;7.936;2023-04-24T07:00:59;13.00;1.00
13682;DHT22;6913;49.892;7.936;2023-04-24T07:03:25;13.40;1.00
13682;DHT22;6913;49.892;7.936;2023-04-24T07:05:54;13.90;1.00
13682;DHT22;6913;49.892;7.936;2023-04-24T07:08:21;13.50;1.00
13682;DHT22;6913;49.892;7.936;2023-04-24T07:10:48;13.80;1.00
13682;DHT22;6913;49.892;7.936;2023-04-24T07:13:16;13.40;99.90
13682;DHT22;6913;49.892;7.936;2023-04-24T07:15:43;12.90;99.90
13682;DHT22;6913;49.892;7.936;2023-04-24T07:18:10;12.60;1.00
13682;DHT22;6913;49.892;7.936;2023-04-24T07:20:36;12.30;1.00
13682;DHT22;6913;49.892;7.936;2023-04-24T07:23:05;12.20;1.00
13682;DHT22;6913;49.892;7.936;2023-04-24T07:25:31;12.10;1.00
13682;DHT22;6913;49.892;7.936;2023-04-24T07:27:58;12.20;1.00
13682;DHT22;6913;49.892;7.936;2023-04-24T07:30:25;12.10;1.00
13682;DHT22;6913;49.892;7.936;2023-04-24T07:32:54;12.20;1.00
13682;DHT22;6913;49.892;7.936;2023-04-24T07:35:21;12.10;1.00
13682;DHT22;6913;49.892;7.936;2023-04-24T07:37:47;12.40;1.00
13682;DHT22;6913;49.892;7.936;2023-04-24T07:40:16;12.30;1.00
13682;DHT22;6913;49.892;7.936;2023-04-24T07:42:42;12.40;1.00
13682;DHT22;6913;49.892;7.936;2023-04-24T07:45:10;12.20;1.00
13682;DHT22;6913;49.892;7.936;2023-04-24T07:47:37;12.30;1.00
13682;DHT22;6913;49.892;7.936;2023-04-24T07:50:05;12.20;1.00
13682;DHT22;6913;49.892;7.936;2023-04-24T07:52:32;12.30;1.00
13682;DHT22;6913;49.892;7.936;2023-04-24T07:54:59;12.20;99.90
13682;DHT22;6913;49.892;7.936;2023-04-24T07:57:28;12.00;1.00
13682;DHT22;6913;49.892;7.936;2023-04-24T07:59:55;12.00;99.90
13682;DHT22;6913;49.892;7.936;2023-04-24T08:02:22;12.00;1.00
13682;DHT22;6913;49.892;7.936;2023-04-24T08:04:51;12.00;1.00
13682;DHT22;6913;49.892;7.936;2023-04-24T08:07:19;12.00;1.00
13682;DHT22;6913;49.892;7.936;2023-04-24T08:09:46;12.20;1.00
13682;DHT22;6913;49.892;7.936;2023-04-24T08:12:12;12.20;1.00
13682;DHT22;6913;49.892;7.936;2023-04-24T08:14:41;12.20;99.90
13682;DHT22;6913;49.892;7.936;2023-04-24T08:17:07;12.10;1.00
13682;DHT22;6913;49.892;7.936;2023-04-24T08:19:34;12.00;1.00
13682;DHT22;6913;49.892;7.936;2023-04-24T08:22:01;12.00;1.00
13682;DHT22;6913;49.892;7.936;2023-04-24T08:24:29;11.80;1.00
13682;DHT22;6913;49.892;7.936;2023-04-24T08:26:56;11.80;1.00
13682;DHT22;6913;49.892;7.936;2023-04-24T08:29:23;11.80;1.00
13682;DHT22;6913;49.892;7.936;2023-04-24T08:31:52;11.80;1.00
13682;DHT22;6913;49.892;7.936;2023-04-24T08:34:20;12.00;1.00
13682;DHT22;6913;49.892;7.936;2023-04-24T08:36:46;12.20;1.00
13682;DHT22;6913;49.892;7.936;2023-04-24T08:39:13;12.30;1.00
13682;DHT22;6913;49.892;7.936;2023-04-24T08:41:42;12.20;1.00
13682;DHT22;6913;49.892;7.936;2023-04-24T08:44:11;12.10;1.00
13682;DHT22;6913;49.892;7.936;2023-04-24T08:46:40;12.20;1.00
13682;DHT22;6913;49.892;7.936;2023-04-24T08:49:10;12.40;1.00
13682;DHT22;6913;49.892;7.936;2023-04-24T08:51:37;12.30;1.00
13682;DHT22;6913;49.892;7.936;2023-04-24T08:54:04;12.40;1.00
13682;DHT22;6913;49.892;7.936;2023-04-24T08:56:33;12.80;1.00
13682;DHT22;6913;49.892;7.936;2023-04-24T08:59:03;12.80;99.90
13682;DHT22;6913;49.892;7.936;2023-04-24T09:01:32;12.90;1.00
13682;DHT22;6913;49.892;7.936;2023-04-24T09:04:00;12.60;99.90
13682;DHT22;6913;49.892;7.936;2023-04-24T09:06:30;12.50;99.90
13682;DHT22;6913;49.892;7.936;2023-04-24T09:09:01;12.10;1.00
13682;DHT22;6913;49.892;7.936;2023-04-24T09:11:30;12.10;1.00
13682;DHT22;6913;49.892;7.936;2023-04-24T09:13:58;12.10;1.00
13682;DHT22;6913;49.892;7.936;2023-04-24T09:16:25;12.20;1.00
13682;DHT22;6913;49.892;7.936;2023-04-24T09:18:53;12.20;1.00
13682;DHT22;6913;49.892;7.936;2023-04-24T09:21:20;12.40;1.00
13682;DHT22;6913;49.892;7.936;2023-04-24T09:23:57;12.50;1.00
13682;DHT22;6913;49.892;7.936;2023-04-24T09:26:25;13.20;99.90
13682;DHT22;6913;49.892;7.936;2023-04-24T09:28:53;13.40;1.00
13682;DHT22;6913;49.892;7.936;2023-04-24T09:31:20;13.40;1.00
13682;DHT22;6913;49.892;7.936;2023-04-24T09:33:54;13.00;99.90
13682;DHT22;6913;49.892;7.936;2023-04-24T09:36:27;13.00;99.90
13682;DHT22;6913;49.892;7.936;2023-04-24T09:38:57;12.80;99.90
13682;DHT22;6913;49.892;7.936;2023-04-24T09:41:25;12.70;1.00
13682;DHT22;6913;49.892;7.936;2023-04-24T09:43:53;12.70;1.00
13682;DHT22;6913;49.892;7.936;2023-04-24T09:46:20;12.70;1.00
13682;DHT22;6913;49.892;7.936;2023-04-24T09:48:47;12.70;1.00
13682;DHT22;6913;49.892;7.936;2023-04-24T09:51:14;12.60;1.00
13682;DHT22;6913;49.892;7.936;2023-04-24T09:53:45;12.70;1.00
13682;DHT22;6913;49.892;7.936;2023-04-24T09:56:14;13.30;1.00
13682;DHT22;6913;49.892;7.936;2023-04-24T09:58:41;13.70;1.00
13682;DHT22;6913;49.892;7.936;2023-04-24T10:01:07;13.90;1.00
13682;DHT22;6913;49.892;7.936;2023-04-24T10:03:34;14.00;75.30
13682;DHT22;6913;49.892;7.936;2023-04-24T10:06:04;14.20;1.00
13682;DHT22;6913;49.892;7.936;2023-04-24T10:08:34;13.70;1.00
13682;DHT22;6913;49.892;7.936;2023-04-24T10:11:01;13.50;1.00
13682;DHT22;6913;49.892;7.936;2023-04-24T10:13:30;13.30;1.00
13682;DHT22;6913;49.892;7.936;2023-04-24T10:15:59;13.20;1.00
13682;DHT22;6913;49.892;7.936;2023-04-24T10:18:27;13.10;1.00
13682;DHT22;6913;49.892;7.936;2023-04-24T10:20:54;13.00;1.00
13682;DHT22;6913;49.892;7.936;2023-04-24T10:23:22;12.60;1.00
13682;DHT22;6913;49.892;7.936;2023-04-24T10:25:49;12.40;26.60
13682;DHT22;6913;49.892;7.936;2023-04-24T10:28:18;12.20;84.20
13682;DHT22;6913;49.892;7.936;2023-04-24T10:30:46;12.20;97.80
13682;DHT22;6913;49.892;7.936;2023-04-24T10:33:14;12.30;98.70
13682;DHT22;6913;49.892;7.936;2023-04-24T10:35:45;12.40;99.90
13682;DHT22;6913;49.892;7.936;2023-04-24T10:38:16;12.30;99.90
13682;DHT22;6913;49.892;7.936;2023-04-24T10:40:45;12.10;99.90
13682;DHT22;6913;49.892;7.936;2023-04-24T10:43:16;12.10;99.90
13682;DHT22;6913;49.892;7.936;2023-04-24T10:46:00;12.00;99.90
13682;DHT22;6913;49.892;7.936;2023-04-24T10:48:27;11.70;99.90
13682;DHT22;6913;49.892;7.936;2023-04-24T10:50:54;11.50;99.90
13682;DHT22;6913;49.892;7.936;2023-04-24T10:53:22;11.40;99.90
13682;DHT22;6913;49.892;7.936;2023-04-24T10:55:51;11.00;99.90
13682;DHT22;6913;49.892;7.936;2023-04-24T10:58:22;11.00;99.90
13682;DHT22;6913;49.892;7.936;2023-04-24T11:00:57;11.00;99.90
13682;DHT22;6913;49.892;7.936;2023-04-24T11:03:26;11.10;99.90
13682;DHT22;6913;49.892;7.936;2023-04-24T11:05:59;11.00;99.90
13682;DHT22;6913;49.892;7.936;2023-04-24T11:08:28;11.00;99.90
13682;DHT22;6913;49.892;7.936;2023-04-24T11:11:01;11.10;99.90
13682;DHT22;6913;49.892;7.936;2023-04-24T11:14:03;11.00;99.90
13682;DHT22;6913;49.892;7.936;2023-04-24T11:16:33;10.80;99.90
13682;DHT22;6913;49.892;7.936;2023-04-24T11:19:01;10.90;99.90
13682;DHT22;6913;49.892;7.936;2023-04-24T11:21:31;11.30;99.90
13682;DHT22;6913;49.892;7.936;2023-04-24T11:23:58;11.70;99.90
13682;DHT22;6913;49.892;7.936;2023-04-24T11:26:25;12.00;99.90
13682;DHT22;6913;49.892;7.936;2023-04-24T11:29:06;12.50;99.90
13682;DHT22;6913;49.892;7.936;2023-04-24T11:31:39;13.20;99.90
13682;DHT22;6913;49.892;7.936;2023-04-24T11:34:09;13.50;84.00
13682;DHT22;6913;49.892;7.936;2023-04-24T11:36:36;13.90;99.90
13682;DHT22;6913;49.892;7.936;2023-04-24T11:39:03;14.30;50.20
13682;DHT22;6913;49.892;7.936;2023-04-24T11:41:30;14.50;1.00
13682;DHT22;6913;49.892;7.936;2023-04-24T11:43:57;14.80;10.30
13682;DHT22;6913;49.892;7.936;2023-04-24T11:46:27;15.40;15.00
13682;DHT22;6913;49.892;7.936;2023-04-24T11:48:56;15.60;1.00
13682;DHT22;6913;49.892;7.936;2023-04-24T11:51:24;15.50;1.00
13682;DHT22;6913;49.892;7.936;2023-04-24T11:53:52;15.00;99.90
13682;DHT22;6913;49.892;7.936;2023-04-24T11:56:19;14.80;1.00
13682;DHT22;6913;49.892;7.936;2023-04-24T11:58:47;15.20;1.00
13682;DHT22;6913;49.892;7.936;2023-04-24T12:01:14;15.10;99.90
13682;DHT22;6913;49.892;7.936;2023-04-24T12:03:41;14.70;1.00
13682;DHT22;6913;49.892;7.936;2023-04-24T12:06:13;14.50;1.00
13682;DHT22;6913;49.892;7.936;2023-04-24T12:08:40;14.20;1.00
13682;DHT22;6913;49.892;7.936;2023-04-24T12:11:07;14.20;99.90
13682;DHT22;6913;49.892;7.936;2023-04-24T12:13:34;14.20;1.00
13682;DHT22;6913;49.892;7.936;2023-04-24T12:16:02;14.30;1.00
13682;DHT22;6913;49.892;7.936;2023-04-24T12:18:30;14.20;1.00
13682;DHT22;6913;49.892;7.936;2023-04-24T12:21:15;14.30;99.90
13682;DHT22;6913;49.892;7.936;2023-04-24T12:23:43;14.60;1.00
13682;DHT22;6913;49.892;7.936;2023-04-24T12:26:09;14.80;99.90
13682;DHT22;6913;49.892;7.936;2023-04-24T12:28:37;15.30;1.00
13682;DHT22;6913;49.892;7.936;2023-04-24T12:31:06;15.30;74.70
13682;DHT22;6913;49.892;7.936;2023-04-24T12:33:33;15.30;99.90
13682;DHT22;6913;49.892;7.936;2023-04-24T12:36:00;15.20;1.00
13682;DHT22;6913;49.892;7.936;2023-04-24T12:38:29;15.10;1.00
13682;DHT22;6913;49.892;7.936;2023-04-24T12:41:03;14.70;1.00
13682;DHT22;6913;49.892;7.936;2023-04-24T12:43:30;14.50;1.00
13682;DHT22;6913;49.892;7.936;2023-04-24T12:45:57;14.30;1.00
13682;DHT22;6913;49.892;7.936;2023-04-24T12:48:25;14.30;1.00
13682;DHT22;6913;49.892;7.936;2023-04-24T12:50:52;14.30;99.90
13682;DHT22;6913;49.892;7.936;2023-04-24T12:53:19;14.40;1.00
13682;DHT22;6913;49.892;7.936;2023-04-24T12:55:47;14.90;99.90
13682;DHT22;6913;49.892;7.936;2023-04-24T12:58:18;15.10;1.00
13682;DHT22;6913;49.892;7.936;2023-04-24T13:00:45;15.10;1.00
13682;DHT22;6913;49.892;7.936;2023-04-24T13:03:12;15.20;1.00
13682;DHT22;6913;49.892;7.936;2023-04-24T13:05:39;15.50;99.90
13682;DHT22;6913;49.892;7.936;2023-04-24T13:08:06;15.80;99.90
13682;DHT22;6913;49.892;7.936;2023-04-24T13:10:33;16.00;1.00
13682;DHT22;6913;49.892;7.936;2023-04-24T13:13:02;16.30;99.90
13682;DHT22;6913;49.892;7.936;2023-04-24T13:15:29;16.30;1.00
13682;DHT22;6913;49.892;7.936;2023-04-24T13:17:56;15.80;99.90
13682;DHT22;6913;49.892;7.936;2023-04-24T13:20:22;15.30;1.00
13682;DHT22;6913;49.892;7.936;2023-04-24T13:22:49;15.10;1.00
13682;DHT22;6913;49.892;7.936;2023-04-24T13:25:16;15.00;1.00
13682;DHT22;6913;49.892;7.936;2023-04-24T13:27:43;15.00;99.90
13682;DHT22;6913;49.892;7.936;2023-04-24T13:30:12;14.90;36.80
13682;DHT22;6913;49.892;7.936;2023-04-24T13:32:39;15.00;1.00
13682;DHT22;6913;49.892;7.936;2023-04-24T13:35:07;14.80;1.00
13682;DHT22;6913;49.892;7.936;2023-04-24T13:37:33;14.60;1.00
13682;DHT22;6913;49.892;7.936;2023-04-24T13:40:00;14.30;1.00
13682;DHT22;6913;49.892;7.936;2023-04-24T13:42:27;14.40;1.00
13682;DHT22;6913;49.892;7.936;2023-04-24T13:44:54;14.40;1.00
13682;DHT22;6913;49.892;7.936;2023-04-24T13:47:22;14.40;1.00
13682;DHT22;6913;49.892;7.936;2023-04-24T13:49:49;14.50;99.90
13682;DHT22;6913;49.892;7.936;2023-04-24T13:52:15;14.70;99.90
13682;DHT22;6913;49.892;7.936;2023-04-24T13:54:42;14.50;99.90
13682;DHT22;6913;49.892;7.936;2023-04-24T13:57:09;14.40;1.00
13682;DHT22;6913;49.892;7.936;2023-04-24T13:59:36;14.30;1.00
13682;DHT22;6913;49.892;7.936;2023-04-24T14:02:03;14.20;1.00
13682;DHT22;6913;49.892;7.936;2023-04-24T14:04:31;14.00;99.90
13682;DHT22;6913;49.892;7.936;2023-04-24T14:06:58;14.20;1.00
13682;DHT22;6913;49.892;7.936;2023-04-24T14:09:25;14.40;1.00
13682;DHT22;6913;49.892;7.936;2023-04-24T14:11:52;14.30;99.90
13682;DHT22;6913;49.892;7.936;2023-04-24T14:14:19;14.40;1.00
13682;DHT22;6913;49.892;7.936;2023-04-24T14:16:45;14.80;99.90
13682;DHT22;6913;49.892;7.936;2023-04-24T14:19:12;14.60;1.00
13682;DHT22;6913;49.892;7.936;2023-04-24T14:21:40;14.40;1.00
13682;DHT22;6913;49.892;7.936;2023-04-24T14:24:08;14.50;1.00
13682;DHT22;6913;49.892;7.936;2023-04-24T14:26:35;14.60;99.90
13682;DHT22;6913;49.892;7.936;2023-04-24T14:29:01;14.80;99.90
13682;DHT22;6913;49.892;7.936;2023-04-24T14:31:28;15.10;1.00
13682;DHT22;6913;49.892;7.936;2023-04-24T14:33:55;15.30;99.90
13682;DHT22;6913;49.892;7.936;2023-04-24T14:36:23;15.30;99.90
13682;DHT22;6913;49.892;7.936;2023-04-24T14:38:51;15.30;99.90
13682;DHT22;6913;49.892;7.936;2023-04-24T14:41:17;15.10;1.00
13682;DHT22;6913;49.892;7.936;2023-04-24T14:43:44;14.90;1.00
13682;DHT22;6913;49.892;7.936;2023-04-24T14:46:11;14.80;1.00
13682;DHT22;6913;49.892;7.936;2023-04-24T14:48:38;14.90;1.00
13682;DHT22;6913;49.892;7.936;2023-04-24T14:51:04;15.30;1.00
13682;DHT22;6913;49.892;7.936;2023-04-24T14:53:31;15.40;1.00
13682;DHT22;6913;49.892;7.936;2023-04-24T14:55:59;15.30;1.00
13682;DHT22;6913;49.892;7.936;2023-04-24T14:58:26;15.10;1.00
13682;DHT22;6913;49.892;7.936;2023-04-24T15:00:53;15.40;1.00
13682;DHT22;6913;49.892;7.936;2023-04-24T15:03:20;15.70;1.00
13682;DHT22;6913;49.892;7.936;2023-04-24T15:05:48;15.90;9.10
13682;DHT22;6913;49.892;7.936;2023-04-24T15:08:15;15.90;1.00
13682;DHT22;6913;49.892;7.936;2023-04-24T15:10:42;16.10;99.90
13682;DHT22;6913;49.892;7.936;2023-04-24T15:13:10;15.90;1.00
13682;DHT22;6913;49.892;7.936;2023-04-24T15:15:37;16.30;1.00
13682;DHT22;6913;49.892;7.936;2023-04-24T15:18:04;15.70;53.20
13682;DHT22;6913;49.892;7.936;2023-04-24T15:20:34;15.60;99.90
13682;DHT22;6913;49.892;7.936;2023-04-24T15:23:01;15.90;99.90
13682;DHT22;6913;49.892;7.936;2023-04-24T15:25:27;15.90;99.90
13682;DHT22;6913;49.892;7.936;2023-04-24T15:27:54;15.70;82.10
13682;DHT22;6913;49.892;7.936;2023-04-24T15:30:23;15.60;99.90
13682;DHT22;6913;49.892;7.936;2023-04-24T15:32:49;15.20;99.90
13682;DHT22;6913;49.892;7.936;2023-04-24T15:35:16;15.00;99.90
13682;DHT22;6913;49.892;7.936;2023-04-24T15:37:43;14.80;1.00
13682;DHT22;6913;49.892;7.936;2023-04-24T15:40:10;14.80;1.00
13682;DHT22;6913;49.892;7.936;2023-04-24T15:42:39;14.50;99.90
13682;DHT22;6913;49.892;7.936;2023-04-24T15:45:06;14.50;1.00
13682;DHT22;6913;49.892;7.936;2023-04-24T15:47:35;14.50;1.00
13682;DHT22;6913;49.892;7.936;2023-04-24T15:50:02;14.70;4.10
13682;DHT22;6913;49.892;7.936;2023-04-24T15:52:29;15.00;99.90
13682;DHT22;6913;49.892;7.936;2023-04-24T15:54:56;15.40;1.00
13682;DHT22;6913;49.892;7.936;2023-04-24T15:57:23;15.20;99.90